SIA104 WSSS-WMKK
Flight info
| Callsign | SIA104 |
|---|---|
| Flight time | N/A |
| Altitude | 26000 |
| Route | MASBO5B MASBO A457 GUPTA GUPTA1H |
| Aircraft | B78X/H-SDE1E2E3FGHIJ2J3J4J5M1RWXY/LB1D1 |
Departure
| Time | 2026-05-06 12:37 |
|---|---|
| Airport | Singapore Changi Airport (WSSS) |
Arrival
| Time | N/A |
|---|---|
| Airport | Kuala Lumpur International Airport (WMKK) |
| Time | Latitude | Longitude | Altitude | Speed | Heading |
|---|---|---|---|---|---|
| 2026-05-06 12:00 | 1.35084 | 103.99036 | 31 ft | 0 kts | 83° |
| 2026-05-06 12:21 | 1.35084 | 103.99032 | 31 ft | 1 kts | 83° |
| 2026-05-06 12:21 | 1.35083 | 103.99023 | 31 ft | 1 kts | 83° |
| 2026-05-06 12:22 | 1.35082 | 103.99014 | 31 ft | 1 kts | 83° |
| 2026-05-06 12:22 | 1.35080 | 103.99005 | 31 ft | 1 kts | 83° |
| 2026-05-06 12:22 | 1.35078 | 103.98990 | 31 ft | 2 kts | 85° |
| 2026-05-06 12:22 | 1.35081 | 103.98973 | 29 ft | 2 kts | 134° |
| 2026-05-06 12:23 | 1.35093 | 103.98962 | 31 ft | 2 kts | 148° |
| 2026-05-06 12:23 | 1.35109 | 103.98953 | 30 ft | 2 kts | 155° |
| 2026-05-06 12:23 | 1.35114 | 103.98951 | 30 ft | 0 kts | 155° |
| 2026-05-06 12:24 | 1.35112 | 103.98952 | 30 ft | 1 kts | 155° |
| 2026-05-06 12:25 | 1.35103 | 103.98956 | 29 ft | 2 kts | 157° |
| 2026-05-06 12:25 | 1.35088 | 103.98960 | 31 ft | 3 kts | 162° |
| 2026-05-06 12:25 | 1.35067 | 103.98965 | 31 ft | 3 kts | 171° |
| 2026-05-06 12:25 | 1.35041 | 103.98966 | 31 ft | 4 kts | 179° |
| 2026-05-06 12:26 | 1.35010 | 103.98966 | 31 ft | 5 kts | 179° |
| 2026-05-06 12:26 | 1.34973 | 103.98968 | 31 ft | 6 kts | 174° |
| 2026-05-06 12:26 | 1.34934 | 103.98978 | 31 ft | 6 kts | 162° |
| 2026-05-06 12:26 | 1.34895 | 103.98999 | 31 ft | 6 kts | 143° |
| 2026-05-06 12:27 | 1.34868 | 103.99035 | 31 ft | 7 kts | 119° |
| 2026-05-06 12:27 | 1.34847 | 103.99077 | 31 ft | 7 kts | 120° |
| 2026-05-06 12:27 | 1.34814 | 103.99099 | 32 ft | 5 kts | 164° |
| 2026-05-06 12:27 | 1.34780 | 103.99097 | 32 ft | 5 kts | 189° |
| 2026-05-06 12:28 | 1.34747 | 103.99088 | 32 ft | 5 kts | 199° |
| 2026-05-06 12:28 | 1.34712 | 103.99074 | 32 ft | 6 kts | 202° |
| 2026-05-06 12:28 | 1.34676 | 103.99058 | 32 ft | 6 kts | 204° |
| 2026-05-06 12:28 | 1.34635 | 103.99040 | 32 ft | 7 kts | 204° |
| 2026-05-06 12:29 | 1.34604 | 103.99026 | 33 ft | 8 kts | 204° |
| 2026-05-06 12:29 | 1.34528 | 103.98997 | 33 ft | 10 kts | 200° |
| 2026-05-06 12:29 | 1.34462 | 103.98969 | 32 ft | 11 kts | 206° |
| 2026-05-06 12:29 | 1.34425 | 103.98913 | 32 ft | 10 kts | 264° |
| 2026-05-06 12:30 | 1.34460 | 103.98880 | 31 ft | 6 kts | 357° |
| 2026-05-06 12:30 | 1.34507 | 103.98892 | 31 ft | 8 kts | 18° |
| 2026-05-06 12:30 | 1.34565 | 103.98915 | 31 ft | 10 kts | 22° |
| 2026-05-06 12:30 | 1.34633 | 103.98943 | 31 ft | 11 kts | 22° |
| 2026-05-06 12:31 | 1.34712 | 103.98977 | 31 ft | 13 kts | 25° |
| 2026-05-06 12:31 | 1.34753 | 103.99038 | 31 ft | 10 kts | 80° |
| 2026-05-06 12:31 | 1.34786 | 103.99098 | 32 ft | 10 kts | 40° |
| 2026-05-06 12:31 | 1.34853 | 103.99134 | 32 ft | 12 kts | 24° |
| 2026-05-06 12:32 | 1.34934 | 103.99167 | 32 ft | 13 kts | 22° |
| 2026-05-06 12:32 | 1.35025 | 103.99205 | 31 ft | 15 kts | 24° |
| 2026-05-06 12:32 | 1.35122 | 103.99248 | 31 ft | 16 kts | 24° |
| 2026-05-06 12:32 | 1.35229 | 103.99293 | 32 ft | 17 kts | 21° |
| 2026-05-06 12:33 | 1.35342 | 103.99339 | 32 ft | 18 kts | 23° |
| 2026-05-06 12:33 | 1.35461 | 103.99388 | 32 ft | 19 kts | 22° |
| 2026-05-06 12:33 | 1.35586 | 103.99441 | 32 ft | 20 kts | 22° |
| 2026-05-06 12:33 | 1.35716 | 103.99495 | 32 ft | 21 kts | 23° |
| 2026-05-06 12:34 | 1.35854 | 103.99554 | 31 ft | 22 kts | 23° |
| 2026-05-06 12:34 | 1.35995 | 103.99612 | 31 ft | 21 kts | 22° |
| 2026-05-06 12:34 | 1.36127 | 103.99669 | 31 ft | 21 kts | 24° |
| 2026-05-06 12:34 | 1.36212 | 103.99704 | 31 ft | 3 kts | 31° |
| 2026-05-06 12:35 | 1.36226 | 103.99720 | 31 ft | 3 kts | 54° |
| 2026-05-06 12:35 | 1.36233 | 103.99744 | 31 ft | 4 kts | 81° |
| 2026-05-06 12:35 | 1.36229 | 103.99779 | 32 ft | 6 kts | 102° |
| 2026-05-06 12:35 | 1.36209 | 103.99829 | 32 ft | 9 kts | 121° |
| 2026-05-06 12:36 | 1.36153 | 103.99865 | 32 ft | 11 kts | 169° |
| 2026-05-06 12:36 | 1.36066 | 103.99843 | 31 ft | 17 kts | 202° |
| 2026-05-06 12:36 | 1.35865 | 103.99760 | 34 ft | 64 kts | 202° |
| 2026-05-06 12:36 | 1.35197 | 103.99476 | 36 ft | 145 kts | 203° |
| 2026-05-06 12:37 | 1.34061 | 103.98975 | 180 ft | 202 kts | 210° |
| 2026-05-06 12:37 | 1.32643 | 103.98362 | 650 ft | 246 kts | 201° |
| 2026-05-06 12:37 | 1.31054 | 103.97683 | 1718 ft | 254 kts | 204° |
| 2026-05-06 12:37 | 1.29420 | 103.96959 | 2931 ft | 258 kts | 204° |
| 2026-05-06 12:38 | 1.27763 | 103.96226 | 4131 ft | 264 kts | 204° |
| 2026-05-06 12:38 | 1.26152 | 103.95326 | 5313 ft | 269 kts | 220° |
| 2026-05-06 12:38 | 1.24720 | 103.94088 | 6412 ft | 276 kts | 208° |
| 2026-05-06 12:38 | 1.22873 | 103.93705 | 7493 ft | 277 kts | 172° |
| 2026-05-06 12:39 | 1.21000 | 103.94384 | 7946 ft | 310 kts | 143° |
| 2026-05-06 12:39 | 1.19442 | 103.96018 | 8035 ft | 350 kts | 127° |
| 2026-05-06 12:39 | 1.17994 | 103.98126 | 8104 ft | 384 kts | 121° |
| 2026-05-06 12:39 | 1.16996 | 104.00637 | 8150 ft | 388 kts | 103° |
| 2026-05-06 12:40 | 1.16849 | 104.03196 | 8072 ft | 355 kts | 82° |
| 2026-05-06 12:40 | 1.17534 | 104.05475 | 7931 ft | 335 kts | 64° |
| 2026-05-06 12:40 | 1.18767 | 104.07314 | 7750 ft | 309 kts | 50° |
| 2026-05-06 12:40 | 1.20223 | 104.08836 | 7568 ft | 297 kts | 38° |
| 2026-05-06 12:41 | 1.21989 | 104.09836 | 7395 ft | 289 kts | 28° |
| 2026-05-06 12:41 | 1.23750 | 104.10770 | 7189 ft | 282 kts | 29° |
| 2026-05-06 12:41 | 1.25413 | 104.11709 | 7035 ft | 276 kts | 31° |
| 2026-05-06 12:41 | 1.27148 | 104.12472 | 7023 ft | 276 kts | 8° |
| 2026-05-06 12:42 | 1.29052 | 104.12373 | 7035 ft | 276 kts | 341° |
| 2026-05-06 12:42 | 1.30705 | 104.11419 | 7051 ft | 277 kts | 320° |
| 2026-05-06 12:42 | 1.32181 | 104.10192 | 7044 ft | 275 kts | 319° |
| 2026-05-06 12:42 | 1.33636 | 104.08927 | 7043 ft | 277 kts | 319° |
| 2026-05-06 12:43 | 1.35094 | 104.07677 | 7041 ft | 276 kts | 319° |
| 2026-05-06 12:43 | 1.36565 | 104.06438 | 7043 ft | 277 kts | 320° |
| 2026-05-06 12:43 | 1.38029 | 104.05203 | 7043 ft | 275 kts | 319° |
| 2026-05-06 12:43 | 1.39493 | 104.03962 | 7045 ft | 277 kts | 319° |
| 2026-05-06 12:44 | 1.40942 | 104.02738 | 7022 ft | 276 kts | 321° |
| 2026-05-06 12:44 | 1.42638 | 104.01883 | 7031 ft | 275 kts | 346° |
| 2026-05-06 12:44 | 1.44471 | 104.01342 | 7255 ft | 278 kts | 340° |
| 2026-05-06 12:44 | 1.46290 | 104.00691 | 7499 ft | 278 kts | 341° |
| 2026-05-06 12:45 | 1.48129 | 104.00076 | 7744 ft | 280 kts | 342° |
| 2026-05-06 12:45 | 1.49965 | 103.99496 | 8183 ft | 276 kts | 343° |
| 2026-05-06 12:45 | 1.53699 | 103.98292 | 9295 ft | 287 kts | 342° |
| 2026-05-06 12:46 | 1.55578 | 103.97681 | 9834 ft | 287 kts | 342° |
| 2026-05-06 12:46 | 1.57528 | 103.97051 | 10356 ft | 310 kts | 343° |
| 2026-05-06 12:46 | 1.59651 | 103.96365 | 10857 ft | 335 kts | 343° |
| 2026-05-06 12:46 | 1.61966 | 103.95616 | 11026 ft | 360 kts | 343° |
| 2026-05-06 12:47 | 1.64353 | 103.94841 | 11038 ft | 362 kts | 343° |
| 2026-05-06 12:47 | 1.66755 | 103.94062 | 11037 ft | 364 kts | 343° |
| 2026-05-06 12:47 | 1.69161 | 103.93284 | 11035 ft | 363 kts | 343° |
| 2026-05-06 12:47 | 1.71566 | 103.92498 | 11040 ft | 363 kts | 341° |
| 2026-05-06 12:48 | 1.73765 | 103.91282 | 11040 ft | 365 kts | 320° |
| 2026-05-06 12:48 | 1.75362 | 103.89375 | 11222 ft | 362 kts | 300° |
| 2026-05-06 12:48 | 1.76226 | 103.87004 | 11892 ft | 371 kts | 281° |
| 2026-05-06 12:48 | 1.76652 | 103.84441 | 12548 ft | 376 kts | 279° |
| 2026-05-06 12:49 | 1.77035 | 103.81827 | 13207 ft | 382 kts | 278° |
| 2026-05-06 12:49 | 1.77409 | 103.79181 | 13849 ft | 388 kts | 278° |
| 2026-05-06 12:49 | 1.77812 | 103.76511 | 14441 ft | 390 kts | 279° |
| 2026-05-06 12:49 | 1.78228 | 103.73819 | 15042 ft | 394 kts | 279° |
| 2026-05-06 12:50 | 1.78637 | 103.71100 | 15657 ft | 399 kts | 278° |
| 2026-05-06 12:50 | 1.79046 | 103.68349 | 16276 ft | 401 kts | 278° |
| 2026-05-06 12:50 | 1.79439 | 103.65612 | 16904 ft | 406 kts | 278° |
| 2026-05-06 12:50 | 1.79838 | 103.62796 | 17557 ft | 410 kts | 278° |
| 2026-05-06 12:51 | 1.80245 | 103.59968 | 18208 ft | 414 kts | 278° |
| 2026-05-06 12:51 | 1.80660 | 103.57107 | 18778 ft | 418 kts | 278° |
| 2026-05-06 12:51 | 1.81078 | 103.54214 | 19369 ft | 422 kts | 278° |
| 2026-05-06 12:51 | 1.81497 | 103.51298 | 19961 ft | 427 kts | 278° |
| 2026-05-06 12:52 | 1.81921 | 103.48351 | 20566 ft | 431 kts | 278° |
| 2026-05-06 12:52 | 1.82346 | 103.45406 | 21177 ft | 436 kts | 278° |
| 2026-05-06 12:52 | 1.82785 | 103.42358 | 21810 ft | 440 kts | 278° |
| 2026-05-06 12:52 | 1.83218 | 103.39353 | 22450 ft | 445 kts | 278° |
| 2026-05-06 12:53 | 1.83661 | 103.36273 | 23125 ft | 449 kts | 278° |
| 2026-05-06 12:53 | 1.84108 | 103.33166 | 23723 ft | 453 kts | 278° |
| 2026-05-06 12:53 | 1.84584 | 103.30048 | 24297 ft | 455 kts | 282° |
| 2026-05-06 12:53 | 1.85564 | 103.27057 | 24884 ft | 455 kts | 296° |
| 2026-05-06 12:54 | 1.86940 | 103.24203 | 25475 ft | 457 kts | 296° |
| 2026-05-06 12:54 | 1.88358 | 103.21322 | 25811 ft | 466 kts | 297° |
| 2026-05-06 12:54 | 1.89804 | 103.18401 | 25856 ft | 468 kts | 297° |
| 2026-05-06 12:54 | 1.91210 | 103.15531 | 25854 ft | 467 kts | 296° |
| 2026-05-06 12:55 | 1.92636 | 103.12608 | 25862 ft | 468 kts | 297° |
| 2026-05-06 12:55 | 1.94065 | 103.09692 | 25859 ft | 469 kts | 297° |
| 2026-05-06 12:55 | 1.95504 | 103.06765 | 25858 ft | 468 kts | 297° |
| 2026-05-06 12:55 | 1.96936 | 103.03846 | 25858 ft | 468 kts | 297° |
| 2026-05-06 12:56 | 1.98370 | 103.00918 | 25862 ft | 468 kts | 297° |
| 2026-05-06 12:56 | 1.99768 | 102.98065 | 25860 ft | 469 kts | 297° |
| 2026-05-06 12:56 | 2.01237 | 102.95070 | 25854 ft | 469 kts | 297° |
| 2026-05-06 12:56 | 2.02668 | 102.92151 | 25861 ft | 468 kts | 297° |
| 2026-05-06 12:57 | 2.04102 | 102.89224 | 25862 ft | 468 kts | 297° |
| 2026-05-06 12:57 | 2.05515 | 102.86339 | 25863 ft | 468 kts | 297° |
| 2026-05-06 12:57 | 2.06942 | 102.83413 | 25861 ft | 468 kts | 296° |
| 2026-05-06 12:57 | 2.08370 | 102.80483 | 25862 ft | 469 kts | 296° |
| 2026-05-06 12:58 | 2.09797 | 102.77557 | 25861 ft | 469 kts | 297° |